createdAt,value
2023-02-21T00:00:20.640Z,72.82
2023-02-21T00:03:05.866Z,71.25
2023-02-21T00:05:51.292Z,71.19
2023-02-21T00:08:36.588Z,71.04
2023-02-21T00:11:23.879Z,71.32
2023-02-21T00:14:09.302Z,70.99
2023-02-21T00:16:54.457Z,72.00
2023-02-21T00:19:40.032Z,72.51
2023-02-21T00:22:25.148Z,71.55
2023-02-21T00:25:10.363Z,71.26
2023-02-21T00:27:55.519Z,70.95
2023-02-21T00:30:40.866Z,70.97
2023-02-21T00:33:26.142Z,71.84
2023-02-21T00:36:11.401Z,72.11
2023-02-21T00:38:56.714Z,70.90
2023-02-21T00:41:41.867Z,71.14
2023-02-21T00:44:27.198Z,71.19
2023-02-21T00:47:12.899Z,71.44
2023-02-21T00:49:58.119Z,73.27
2023-02-21T00:52:43.659Z,72.98
2023-02-21T00:55:28.762Z,71.87
2023-02-21T00:58:14.141Z,71.62
2023-02-21T01:00:59.369Z,71.64
2023-02-21T01:03:44.798Z,71.82
2023-02-21T01:06:31.194Z,71.55
2023-02-21T01:09:16.376Z,71.50
2023-02-21T01:12:01.601Z,71.64
2023-02-21T01:14:47.642Z,71.12
2023-02-21T01:17:32.869Z,71.74
2023-02-21T01:20:19.719Z,70.75
2023-02-21T01:23:05.858Z,70.83
2023-02-21T01:25:51.049Z,71.85
2023-02-21T01:28:36.357Z,72.60
2023-02-21T01:31:21.846Z,72.80
2023-02-21T01:34:07.118Z,74.20
2023-02-21T01:36:52.366Z,74.19
2023-02-21T01:39:39.695Z,72.04
2023-02-21T01:42:24.913Z,70.99
2023-02-21T01:45:36.551Z,71.84
2023-02-21T01:48:22.354Z,72.03
2023-02-21T01:51:08.147Z,72.52
2023-02-21T01:53:54.608Z,72.79
2023-02-21T01:56:39.734Z,72.33
2023-02-21T01:59:26.788Z,72.03
2023-02-21T02:02:33.710Z,72.61
2023-02-21T02:05:20.057Z,72.51
2023-02-21T02:08:05.137Z,72.40
2023-02-21T02:10:50.456Z,73.20
2023-02-21T02:13:19.999Z,74.38
2023-02-21T02:15:56.323Z,74.30
2023-02-21T02:18:35.066Z,71.65
2023-02-21T02:21:17.057Z,72.26
2023-02-21T02:24:21.504Z,73.69
2023-02-21T02:26:59.979Z,72.11
2023-02-21T02:30:03.959Z,71.63
2023-02-21T02:33:15.735Z,71.86
2023-02-21T02:35:54.839Z,72.92
2023-02-21T02:38:50.391Z,72.72
2023-02-21T02:41:35.244Z,72.49
2023-02-21T02:44:29.710Z,73.20
2023-02-21T02:47:02.177Z,72.57
2023-02-21T02:49:31.242Z,71.36
2023-02-21T02:52:04.981Z,70.76
2023-02-21T02:54:32.397Z,71.76
2023-02-21T02:57:02.801Z,71.10
2023-02-21T02:59:33.360Z,71.57
2023-02-21T03:02:24.070Z,71.98
2023-02-21T03:05:29.693Z,72.16
2023-02-21T03:08:05.123Z,71.27
2023-02-21T03:10:40.547Z,71.10
2023-02-21T03:13:38.960Z,71.03
2023-02-21T03:16:19.458Z,70.46
2023-02-21T03:18:50.979Z,70.66
2023-02-21T03:21:26.466Z,71.55
2023-02-21T03:23:57.566Z,72.66
2023-02-21T03:26:27.553Z,72.75
2023-02-21T03:28:59.429Z,72.63
2023-02-21T03:31:35.511Z,72.67
2023-02-21T03:34:02.462Z,72.24
2023-02-21T03:36:29.158Z,72.02
2023-02-21T03:38:56.571Z,72.24
2023-02-21T03:41:24.506Z,71.58
2023-02-21T03:43:51.564Z,70.35
2023-02-21T03:46:18.587Z,71.94
2023-02-21T03:48:45.706Z,72.35
2023-02-21T03:51:20.193Z,71.33
2023-02-21T03:53:47.599Z,71.77
2023-02-21T03:56:18.327Z,71.79
2023-02-21T03:59:04.495Z,71.80
2023-02-21T04:01:31.702Z,71.68
2023-02-21T04:03:59.315Z,71.83
2023-02-21T04:06:26.768Z,71.83
2023-02-21T04:08:54.864Z,71.79
2023-02-21T04:11:23.259Z,71.93
2023-02-21T04:13:51.970Z,72.75
2023-02-21T04:16:18.760Z,71.98
2023-02-21T04:18:45.583Z,72.58
2023-02-21T04:21:19.948Z,72.26
2023-02-21T04:23:50.266Z,72.32
2023-02-21T04:26:18.437Z,72.64
2023-02-21T04:28:50.902Z,72.73
2023-02-21T04:31:18.797Z,71.47
2023-02-21T04:33:45.634Z,71.83
2023-02-21T04:36:16.548Z,72.09
2023-02-21T04:38:44.555Z,72.25
2023-02-21T04:41:11.577Z,72.71
2023-02-21T04:43:38.506Z,72.26
2023-02-21T04:46:05.456Z,71.36
2023-02-21T04:48:32.484Z,71.14
2023-02-21T04:51:13.471Z,71.41
2023-02-21T04:53:40.434Z,71.74
2023-02-21T04:56:07.338Z,72.02
2023-02-21T04:58:44.967Z,72.27
2023-02-21T05:01:13.519Z,73.23
2023-02-21T05:03:40.615Z,72.89
2023-02-21T05:06:07.748Z,71.82
2023-02-21T05:08:35.811Z,71.51
2023-02-21T05:11:03.002Z,71.93
2023-02-21T05:13:29.633Z,72.09
2023-02-21T05:15:56.322Z,71.28
2023-02-21T05:18:23.332Z,72.23
2023-02-21T05:20:50.299Z,72.91
2023-02-21T05:23:18.983Z,72.69
2023-02-21T05:25:45.784Z,72.01
2023-02-21T05:28:12.441Z,71.93
2023-02-21T05:30:39.230Z,72.28
2023-02-21T05:33:06.009Z,71.06
2023-02-21T05:35:32.769Z,71.13
2023-02-21T05:37:59.423Z,71.61
2023-02-21T05:40:26.019Z,72.55
2023-02-21T05:42:52.555Z,72.99
2023-02-21T05:45:19.237Z,74.80
2023-02-21T05:47:45.788Z,74.17
2023-02-21T05:50:12.450Z,72.96
2023-02-21T05:52:39.122Z,71.92
2023-02-21T05:55:06.137Z,72.24
2023-02-21T05:57:38.340Z,72.56
2023-02-21T06:00:05.740Z,72.72
2023-02-21T06:02:38.583Z,73.45
2023-02-21T06:05:05.609Z,73.07
2023-02-21T06:07:32.186Z,73.37
2023-02-21T06:09:58.843Z,73.00
2023-02-21T06:12:25.415Z,71.85
2023-02-21T06:14:52.057Z,72.02
2023-02-21T06:17:18.749Z,72.21
2023-02-21T06:19:45.478Z,72.62
2023-02-21T06:22:12.167Z,73.13
2023-02-21T06:24:38.842Z,74.38
2023-02-21T06:27:06.020Z,73.02
2023-02-21T06:29:32.807Z,73.10
2023-02-21T06:32:00.730Z,73.30
2023-02-21T06:34:28.597Z,73.90
2023-02-21T06:36:55.714Z,74.05
2023-02-21T06:39:23.502Z,73.96
2023-02-21T06:41:50.870Z,73.67
2023-02-21T06:44:17.761Z,73.66
2023-02-21T06:46:44.311Z,73.90
2023-02-21T06:49:11.083Z,74.37
2023-02-21T06:51:40.061Z,74.88
2023-02-21T06:54:10.703Z,74.79
2023-02-21T06:56:37.402Z,75.32
2023-02-21T06:59:05.397Z,75.15
2023-02-21T07:01:32.302Z,74.84
2023-02-21T07:03:59.289Z,75.13
2023-02-21T07:06:27.932Z,76.48
2023-02-21T07:08:56.213Z,76.38
2023-02-21T07:11:22.790Z,76.50
2023-02-21T07:13:54.159Z,77.28
2023-02-21T07:16:21.116Z,77.78
2023-02-21T07:18:48.043Z,78.12
2023-02-21T07:21:15.917Z,78.53
2023-02-21T07:23:46.922Z,78.79
2023-02-21T07:26:14.162Z,78.90
2023-02-21T07:28:41.171Z,79.52
2023-02-21T07:31:08.040Z,79.23
2023-02-21T07:33:34.707Z,79.46
2023-02-21T07:36:01.415Z,79.74
2023-02-21T07:38:29.894Z,80.11
2023-02-21T07:41:02.499Z,81.16
2023-02-21T07:43:31.070Z,80.81
2023-02-21T07:45:58.135Z,81.85
2023-02-21T07:48:24.882Z,82.57
2023-02-21T07:50:51.537Z,82.82
2023-02-21T07:53:18.647Z,82.66
2023-02-21T07:55:45.262Z,82.71
2023-02-21T07:58:12.010Z,82.76
2023-02-21T08:00:40.485Z,83.64
2023-02-21T08:03:07.586Z,83.62
2023-02-21T08:05:34.224Z,83.06
2023-02-21T08:08:00.933Z,82.97
2023-02-21T08:10:28.116Z,82.71
2023-02-21T08:12:55.024Z,82.08
2023-02-21T08:15:22.950Z,82.80
2023-02-21T08:17:50.586Z,83.32
2023-02-21T08:20:17.774Z,83.27
2023-02-21T08:22:44.849Z,83.21
2023-02-21T08:25:12.917Z,82.73
2023-02-21T08:27:41.014Z,82.84
2023-02-21T08:30:09.708Z,82.39
2023-02-21T08:32:36.378Z,83.34
2023-02-21T08:35:05.830Z,83.34
2023-02-21T08:37:36.411Z,83.45
2023-02-21T08:40:04.380Z,83.84
2023-02-21T08:42:31.083Z,84.65
2023-02-21T08:44:57.846Z,85.86
2023-02-21T08:47:24.489Z,85.56
2023-02-21T08:49:51.190Z,84.93
2023-02-21T08:52:19.613Z,85.18
2023-02-21T08:54:46.360Z,85.10
2023-02-21T08:57:13.914Z,85.83
2023-02-21T08:59:42.710Z,85.05
2023-02-21T09:02:19.001Z,85.33
2023-02-21T09:04:46.558Z,85.16
2023-02-21T09:07:17.789Z,84.66
2023-02-21T09:09:44.962Z,84.79
2023-02-21T09:12:12.267Z,84.23
2023-02-21T09:14:40.867Z,84.41
2023-02-21T09:17:10.611Z,84.61
2023-02-21T09:19:37.751Z,84.54
2023-02-21T09:22:07.506Z,83.92
2023-02-21T09:24:34.477Z,83.67
2023-02-21T09:27:03.892Z,84.15
2023-02-21T09:29:44.915Z,84.70
2023-02-21T09:32:12.638Z,85.97
2023-02-21T09:34:39.888Z,84.72
2023-02-21T09:37:06.815Z,84.60
2023-02-21T09:39:33.419Z,84.03
2023-02-21T09:42:00.153Z,83.98
2023-02-21T09:44:28.866Z,82.72
2023-02-21T09:47:02.319Z,82.70
2023-02-21T09:49:33.670Z,81.54
2023-02-21T09:52:01.367Z,81.47
2023-02-21T09:54:32.685Z,81.79
2023-02-21T09:57:03.515Z,82.22
2023-02-21T09:59:30.324Z,82.32
2023-02-21T10:02:20.208Z,82.20
2023-02-21T10:05:34.609Z,81.67
2023-02-21T10:08:16.439Z,81.65
2023-02-21T10:10:51.232Z,83.35
2023-02-21T10:13:43.650Z,82.14
2023-02-21T10:16:21.428Z,81.99
2023-02-21T10:19:09.777Z,81.81
2023-02-21T10:21:45.770Z,81.59
2023-02-21T10:24:19.416Z,82.47
2023-02-21T10:26:54.813Z,81.41
2023-02-21T10:29:27.265Z,81.10
2023-02-21T10:32:03.230Z,82.02
2023-02-21T10:34:32.615Z,81.82
2023-02-21T10:37:17.294Z,81.03
2023-02-21T10:39:49.424Z,80.16
2023-02-21T10:42:30.734Z,80.80
2023-02-21T10:44:58.433Z,80.35
2023-02-21T10:47:46.886Z,79.91
2023-02-21T10:50:13.694Z,79.10
2023-02-21T10:52:51.297Z,79.96
2023-02-21T10:55:32.690Z,78.95
2023-02-21T10:58:10.194Z,78.52
2023-02-21T11:00:38.850Z,78.05
2023-02-21T11:03:27.566Z,77.87
2023-02-21T11:05:58.160Z,77.22
2023-02-21T11:08:40.702Z,77.41
2023-02-21T11:11:07.951Z,77.05
2023-02-21T11:13:36.174Z,78.44
2023-02-21T11:16:17.827Z,77.27
2023-02-21T11:18:44.676Z,79.34
2023-02-21T11:21:17.433Z,77.10
2023-02-21T11:24:02.843Z,77.07
2023-02-21T11:26:38.591Z,75.93
2023-02-21T11:29:13.262Z,76.50
2023-02-21T11:31:40.557Z,75.92
2023-02-21T11:34:10.063Z,75.96
2023-02-21T11:36:42.690Z,76.04
2023-02-21T11:39:29.519Z,74.56
2023-02-21T11:42:04.008Z,74.40
2023-02-21T11:44:39.642Z,74.10
2023-02-21T11:47:16.928Z,75.94
2023-02-21T11:50:22.332Z,75.83
2023-02-21T11:53:15.024Z,74.45
2023-02-21T11:55:49.307Z,73.75
2023-02-21T11:58:33.135Z,72.79
2023-02-21T12:01:18.995Z,72.92
2023-02-21T12:04:04.567Z,73.06
2023-02-21T12:06:43.586Z,71.66
2023-02-21T12:09:31.806Z,71.32
2023-02-21T12:12:10.697Z,72.25
2023-02-21T12:15:03.136Z,71.08
2023-02-21T12:17:52.230Z,69.69
2023-02-21T12:20:38.634Z,69.70
2023-02-21T12:23:23.841Z,70.40
2023-02-21T12:26:11.923Z,69.00
2023-02-21T12:28:44.472Z,68.29
2023-02-21T12:31:31.326Z,67.94
2023-02-21T12:34:04.153Z,66.56
2023-02-21T12:36:46.287Z,67.18
2023-02-21T12:39:25.491Z,66.71
2023-02-21T12:41:54.868Z,65.27
2023-02-21T12:44:47.398Z,65.76
2023-02-21T12:47:22.345Z,66.14
2023-02-21T12:50:23.385Z,65.95
2023-02-21T12:53:02.221Z,66.26
2023-02-21T12:55:42.515Z,65.07
2023-02-21T12:58:39.613Z,65.19
2023-02-21T13:01:22.016Z,63.81
2023-02-21T13:04:11.613Z,63.46
2023-02-21T13:06:46.310Z,63.87
2023-02-21T13:09:26.916Z,64.04
2023-02-21T13:12:11.336Z,64.23
2023-02-21T13:15:04.893Z,63.34
2023-02-21T13:17:31.704Z,62.35
2023-02-21T13:20:06.547Z,63.52
2023-02-21T13:23:10.495Z,62.93
2023-02-21T13:25:46.953Z,63.30
2023-02-21T13:28:25.637Z,64.17
2023-02-21T13:30:58.857Z,64.10
2023-02-21T13:33:28.227Z,62.58
2023-02-21T13:35:59.530Z,62.64
2023-02-21T13:38:29.559Z,61.55
2023-02-21T13:41:16.801Z,63.18
2023-02-21T13:43:51.360Z,62.17
2023-02-21T13:46:30.510Z,62.52
2023-02-21T13:49:34.886Z,61.46
2023-02-21T13:52:28.859Z,61.85
2023-02-21T13:55:23.340Z,60.95
2023-02-21T13:58:15.908Z,60.28
2023-02-21T14:00:42.582Z,61.17
2023-02-21T14:03:09.932Z,60.99
2023-02-21T14:05:48.437Z,60.93
2023-02-21T14:08:24.114Z,60.48
2023-02-21T14:10:56.478Z,61.74
2023-02-21T14:13:47.741Z,60.17
2023-02-21T14:16:15.274Z,60.72
2023-02-21T14:18:50.713Z,59.98
2023-02-21T14:21:20.470Z,60.39
2023-02-21T14:23:54.779Z,60.42
2023-02-21T14:26:51.514Z,61.22
2023-02-21T14:30:01.512Z,60.81
2023-02-21T14:32:34.725Z,59.87
2023-02-21T14:35:12.953Z,60.83
2023-02-21T14:37:51.217Z,60.28
2023-02-21T14:40:34.943Z,61.36
2023-02-21T14:43:07.440Z,60.31
2023-02-21T14:46:07.429Z,60.88
2023-02-21T14:49:05.046Z,61.22
2023-02-21T14:52:02.252Z,61.04
2023-02-21T14:54:53.725Z,61.76
2023-02-21T14:57:59.677Z,61.72
2023-02-21T15:01:03.056Z,62.15
2023-02-21T15:03:35.839Z,62.85
2023-02-21T15:06:14.291Z,63.66
2023-02-21T15:08:49.955Z,63.63
2023-02-21T15:11:27.936Z,64.21
2023-02-21T15:14:14.863Z,65.00
2023-02-21T15:16:46.428Z,64.44
2023-02-21T15:19:39.644Z,64.41
2023-02-21T15:22:24.507Z,63.94
2023-02-21T15:24:57.458Z,65.01
2023-02-21T15:27:24.216Z,64.36
2023-02-21T15:30:04.822Z,63.67
2023-02-21T15:32:31.626Z,64.82
2023-02-21T15:34:58.349Z,64.54
2023-02-21T15:37:29.564Z,64.30
2023-02-21T15:40:05.376Z,64.24
2023-02-21T15:42:35.033Z,64.36
2023-02-21T15:45:07.574Z,64.32
2023-02-21T15:47:36.316Z,65.11
2023-02-21T15:50:05.265Z,65.25
2023-02-21T15:52:41.408Z,64.37
2023-02-21T15:55:26.369Z,65.06
2023-02-21T15:58:07.988Z,65.01
2023-02-21T16:00:38.226Z,65.52
2023-02-21T16:03:31.606Z,66.13
2023-02-21T16:06:23.116Z,65.93
2023-02-21T16:08:59.112Z,66.90
2023-02-21T16:11:45.619Z,67.33
2023-02-21T16:14:38.576Z,67.62
2023-02-21T16:17:41.406Z,67.58
2023-02-21T16:20:27.185Z,67.37
2023-02-21T16:23:26.744Z,67.84
2023-02-21T16:25:57.606Z,67.94
2023-02-21T16:28:24.585Z,68.33
2023-02-21T16:30:51.745Z,67.76
2023-02-21T16:33:18.609Z,67.70
2023-02-21T16:35:45.280Z,67.74
2023-02-21T16:38:17.247Z,67.85
2023-02-21T16:40:44.083Z,68.19
2023-02-21T16:43:24.606Z,68.74
2023-02-21T16:45:54.140Z,68.82
2023-02-21T16:48:24.583Z,68.88
2023-02-21T16:50:51.805Z,69.01
2023-02-21T16:53:19.849Z,69.27
2023-02-21T16:55:47.122Z,68.92
2023-02-21T16:58:31.081Z,69.51
2023-02-21T17:01:01.252Z,69.95
2023-02-21T17:03:28.693Z,70.39
2023-02-21T17:05:57.798Z,71.16
2023-02-21T17:08:25.965Z,70.98
2023-02-21T17:10:52.670Z,69.90
2023-02-21T17:13:19.671Z,70.11
2023-02-21T17:15:47.742Z,71.33
2023-02-21T17:18:14.531Z,72.15
2023-02-21T17:20:41.223Z,71.33
2023-02-21T17:23:08.243Z,71.88
2023-02-21T17:25:36.417Z,72.31
2023-02-21T17:28:03.966Z,71.63
2023-02-21T17:30:31.472Z,71.87
2023-02-21T17:32:58.207Z,72.58
2023-02-21T17:35:24.981Z,72.20
2023-02-21T17:37:51.901Z,72.77
2023-02-21T17:40:20.599Z,72.47
2023-02-21T17:42:47.685Z,71.84
2023-02-21T17:45:18.360Z,73.38
2023-02-21T17:47:45.405Z,74.02
2023-02-21T17:50:13.871Z,74.45
2023-02-21T17:52:41.589Z,74.55
2023-02-21T17:55:10.947Z,75.20
2023-02-21T17:57:40.678Z,74.99
2023-02-21T18:00:16.353Z,74.96
2023-02-21T18:02:43.040Z,74.43
2023-02-21T18:05:09.737Z,74.37
2023-02-21T18:07:36.547Z,73.91
2023-02-21T18:10:05.908Z,74.28
2023-02-21T18:12:33.409Z,74.70
2023-02-21T18:15:00.867Z,74.46
2023-02-21T18:17:27.962Z,74.40
2023-02-21T18:19:54.562Z,75.26
2023-02-21T18:22:21.314Z,74.67
2023-02-21T18:24:48.050Z,74.97
2023-02-21T18:27:15.762Z,74.87
2023-02-21T18:29:42.392Z,74.91
2023-02-21T18:32:09.144Z,74.81
2023-02-21T18:34:35.809Z,74.99
2023-02-21T18:37:02.399Z,75.26
2023-02-21T18:39:29.383Z,74.91
2023-02-21T18:41:56.042Z,74.08
2023-02-21T18:44:22.703Z,74.56
2023-02-21T18:46:54.774Z,74.14
2023-02-21T18:49:22.746Z,74.26
2023-02-21T18:51:49.480Z,73.79
2023-02-21T18:54:17.145Z,73.36
2023-02-21T18:56:49.103Z,73.95
2023-02-21T18:59:20.956Z,74.44
2023-02-21T19:01:52.606Z,74.35
2023-02-21T19:04:19.992Z,74.53
2023-02-21T19:06:47.197Z,74.83
2023-02-21T19:09:14.278Z,75.19
2023-02-21T19:11:40.903Z,75.20
2023-02-21T19:14:07.785Z,75.30
2023-02-21T19:16:34.496Z,75.80
2023-02-21T19:19:03.458Z,75.85
2023-02-21T19:21:31.208Z,75.99
2023-02-21T19:23:58.379Z,76.11
2023-02-21T19:26:28.427Z,75.97
2023-02-21T19:28:55.640Z,75.66
2023-02-21T19:31:22.761Z,76.14
2023-02-21T19:33:49.513Z,76.08
2023-02-21T19:36:16.262Z,76.17
2023-02-21T19:38:42.946Z,76.17
2023-02-21T19:41:09.656Z,76.45
2023-02-21T19:43:36.385Z,77.02
2023-02-21T19:46:03.485Z,76.93
2023-02-21T19:48:30.265Z,76.68
2023-02-21T19:50:57.742Z,76.96
2023-02-21T19:53:24.414Z,76.92
2023-02-21T19:55:51.057Z,77.02
2023-02-21T19:58:19.760Z,77.12
2023-02-21T20:00:46.604Z,77.15
2023-02-21T20:03:13.404Z,77.12
2023-02-21T20:05:40.059Z,77.20
2023-02-21T20:08:07.064Z,77.22
2023-02-21T20:10:33.880Z,77.51
2023-02-21T20:13:02.503Z,77.49
2023-02-21T20:15:29.319Z,77.63
2023-02-21T20:17:55.995Z,77.56
2023-02-21T20:20:22.631Z,77.64
2023-02-21T20:22:49.298Z,77.92
2023-02-21T20:25:16.052Z,77.75
2023-02-21T20:27:42.831Z,77.78
2023-02-21T20:30:10.206Z,78.02
2023-02-21T20:32:36.978Z,77.88
2023-02-21T20:35:04.256Z,77.99
2023-02-21T20:37:32.578Z,78.17
2023-02-21T20:39:59.707Z,77.65
2023-02-21T20:42:26.513Z,77.92
2023-02-21T20:44:53.421Z,78.29
2023-02-21T20:47:20.155Z,77.91
2023-02-21T20:49:47.803Z,78.54
2023-02-21T20:52:16.012Z,78.25
2023-02-21T20:54:43.330Z,78.20
2023-02-21T20:57:10.209Z,77.95
2023-02-21T20:59:39.415Z,78.27
2023-02-21T21:02:08.449Z,78.58
2023-02-21T21:04:43.268Z,77.72
2023-02-21T21:07:21.372Z,78.28
2023-02-21T21:09:49.754Z,78.30
2023-02-21T21:12:19.296Z,78.48
2023-02-21T21:14:47.968Z,78.34
2023-02-21T21:17:17.727Z,78.17
2023-02-21T21:19:46.442Z,78.16
2023-02-21T21:22:19.385Z,78.04
2023-02-21T21:24:46.683Z,78.36
2023-02-21T21:27:15.311Z,78.71
2023-02-21T21:29:43.948Z,78.76
2023-02-21T21:32:12.704Z,78.53
2023-02-21T21:34:44.465Z,78.49
2023-02-21T21:37:11.546Z,78.39
2023-02-21T21:39:38.943Z,78.60
2023-02-21T21:42:11.336Z,78.70
2023-02-21T21:44:43.970Z,77.95
2023-02-21T21:47:10.681Z,76.87
2023-02-21T21:49:37.468Z,77.66
2023-02-21T21:52:05.175Z,77.92
2023-02-21T21:54:36.017Z,78.53
2023-02-21T21:57:05.302Z,78.96
2023-02-21T21:59:32.667Z,78.61
2023-02-21T22:01:59.666Z,78.52
2023-02-21T22:04:27.169Z,78.30
2023-02-21T22:06:55.087Z,77.57
2023-02-21T22:09:22.373Z,77.90
2023-02-21T22:11:50.189Z,77.80
2023-02-21T22:14:18.594Z,77.46
2023-02-21T22:16:47.879Z,77.86
2023-02-21T22:19:15.826Z,77.84
2023-02-21T22:21:45.625Z,77.91
2023-02-21T22:24:16.015Z,78.04
2023-02-21T22:26:44.764Z,78.51
2023-02-21T22:29:15.479Z,78.43
2023-02-21T22:31:43.946Z,78.23
2023-02-21T22:34:22.802Z,78.45
2023-02-21T22:36:51.227Z,78.11
2023-02-21T22:39:18.293Z,78.29
2023-02-21T22:41:45.492Z,78.21
2023-02-21T22:44:13.581Z,78.52
2023-02-21T22:46:48.721Z,79.12
2023-02-21T22:49:18.574Z,78.45
2023-02-21T22:51:45.163Z,78.68
2023-02-21T22:54:16.018Z,79.11
2023-02-21T22:56:51.152Z,78.79
2023-02-21T22:59:19.407Z,78.98
2023-02-21T23:01:46.264Z,79.45
2023-02-21T23:04:34.372Z,78.88
2023-02-21T23:07:02.596Z,79.64
2023-02-21T23:09:30.487Z,79.25
2023-02-21T23:11:59.574Z,79.44
2023-02-21T23:14:27.635Z,79.55
2023-02-21T23:16:58.904Z,79.22
2023-02-21T23:19:27.872Z,79.56
2023-02-21T23:21:55.039Z,79.57
2023-02-21T23:24:22.464Z,79.22
2023-02-21T23:26:51.104Z,78.60
2023-02-21T23:29:24.099Z,79.28
2023-02-21T23:31:52.235Z,79.48
2023-02-21T23:34:19.820Z,79.95
2023-02-21T23:36:46.771Z,80.25
2023-02-21T23:39:15.284Z,80.21
2023-02-21T23:41:48.501Z,80.43
2023-02-21T23:44:16.139Z,80.17
2023-02-21T23:46:44.552Z,81.20
2023-02-21T23:49:15.594Z,79.97
2023-02-21T23:51:44.172Z,79.91
2023-02-21T23:54:11.607Z,80.22
2023-02-21T23:56:40.235Z,80.64
2023-02-21T23:59:07.446Z,80.69
